Nearby METAR Reports

 

KHQM - Hoquiam,WA, USA
Updated: Tue, 11-Dec-2018 7:53pm PST
Few Clouds
Few Clouds
 Wind from W
Wind: W 6 mph , 9 km/h
Temperature: 48°F , 9°C
Wind Chill: 45°F , 7°C
Dew Point: 43°F , 6°C
Humidity: 82%
Barometer: 29.82 inHg , 1009.8 hPa
Clouds: Few Clouds
Visibility: 8 miles , 13 km
Cloud details: Few Clouds 3400 ft
2018/12/12 03:53 KHQM 120353Z AUTO 28005KT 8SM FEW034 09/06 A2982 RMK AO2 RAB0254E03 PRESRR SLP100 P0000 T00890056